Time;durP1;ratioP1;P1;durP2;ratioP2;P2;SDS_P1;SDS_P2;PMS_P1;PMS_P2;Temp;Humidity;BMP_temperature;BMP_pressure;BME280_temperature;BME280_humidity;BME280_pressure;Samples;Min_cycle;Max_cycle;Signal;HPM_P1;HPM_P2
2022/05/19 00:02:03;;;;;;;8.90;4.40;;;;;;;16.73;52.87;101521.28;5061829;28;20055;-69
2022/05/19 00:04:32;;;;;;;6.00;3.72;;;;;;;16.72;53.03;101528.41;5063116;28;20063;-70
2022/05/19 00:06:59;;;;;;;9.70;3.25;;;;;;;16.71;53.07;101526.69;5052312;28;20059;-69
2022/05/19 00:09:27;;;;;;;5.78;3.47;;;;;;;16.68;53.32;101527.75;5049260;28;20037;-71
2022/05/19 00:11:55;;;;;;;4.97;3.42;;;;;;;16.65;53.47;101514.66;5062467;28;20059;-70
2022/05/19 00:14:23;;;;;;;6.10;3.55;;;;;;;16.62;53.47;101517.56;5046080;28;20056;-71
2022/05/19 00:16:51;;;;;;;6.65;3.78;;;;;;;16.60;53.70;101522.09;5050416;28;20082;-70
2022/05/19 00:19:19;;;;;;;8.85;4.20;;;;;;;16.55;53.75;101518.06;5045095;28;20061;-70
2022/05/19 00:21:46;;;;;;;10.98;3.47;;;;;;;16.54;53.88;101513.72;5054992;28;20051;-70
2022/05/19 00:24:14;;;;;;;7.13;3.72;;;;;;;16.50;54.03;101517.56;5030766;28;20056;-70
2022/05/19 00:26:42;;;;;;;4.13;3.30;;;;;;;16.45;54.13;101521.38;5067660;28;20143;-71
2022/05/19 00:29:09;;;;;;;6.78;3.88;;;;;;;16.42;53.90;101513.59;5064711;28;20033;-69
2022/05/19 00:31:37;;;;;;;8.45;3.88;;;;;;;16.40;54.18;101506.72;5054418;28;20051;-69
2022/05/19 00:34:04;;;;;;;8.18;3.70;;;;;;;16.38;54.37;101508.59;5049547;28;20047;-70
2022/05/19 00:36:32;;;;;;;7.00;4.13;;;;;;;16.34;54.77;101507.97;5069841;28;20056;-70
2022/05/19 00:39:00;;;;;;;5.88;3.67;;;;;;;16.32;54.64;101509.88;5051125;28;21802;-70
2022/05/19 00:41:27;;;;;;;7.47;3.42;;;;;;;16.31;54.82;101500.22;5046718;28;20048;-70
2022/05/19 00:44:04;;;;;;;5.70;3.63;;;;;;;16.27;54.82;101501.38;5072866;28;20048;-71
2022/05/19 00:46:52;;;;;;;7.03;3.75;;;;;;;16.24;54.97;101506.91;5020766;28;20061;-70
2022/05/19 00:49:24;;;;;;;5.78;3.70;;;;;;;16.22;55.04;101510.63;5062581;28;20040;-69
2022/05/19 00:52:01;;;;;;;8.27;3.95;;;;;;;16.17;55.27;101501.19;5043610;28;20045;-70
2022/05/19 00:54:36;;;;;;;6.85;3.72;;;;;;;16.14;55.64;101503.19;5044725;28;20052;-69
2022/05/19 00:57:11;;;;;;;10.75;3.97;;;;;;;16.11;55.48;101509.53;5053657;28;20640;-69
2022/05/19 01:00:04;;;;;;;3.88;3.08;;;;;;;16.07;55.52;101513.34;5062890;28;20418;-70
2022/05/19 01:02:35;;;;;;;11.50;3.55;;;;;;;16.05;55.87;101504.66;5021128;28;20045;-70
2022/05/19 01:05:15;;;;;;;8.35;3.78;;;;;;;16.04;55.94;101510.94;5030568;28;20048;-70
2022/05/19 01:07:47;;;;;;;9.05;4.15;;;;;;;16.02;56.03;101504.00;5045264;28;20059;-69
2022/05/19 01:10:15;;;;;;;6.82;3.83;;;;;;;16.01;56.33;101503.16;5035388;28;20056;-69
2022/05/19 01:12:48;;;;;;;6.20;3.85;;;;;;;15.97;56.22;101504.31;5037578;28;20564;-70
2022/05/19 01:15:16;;;;;;;8.85;3.20;;;;;;;15.94;56.49;101502.75;5040749;28;20392;-71
2022/05/19 01:17:44;;;;;;;8.65;4.18;;;;;;;15.92;56.22;101503.78;5052962;28;20054;-70
2022/05/19 01:20:18;;;;;;;9.00;4.22;;;;;;;15.88;56.78;101503.13;5026960;28;20041;-70
2022/05/19 01:22:55;;;;;;;15.93;4.25;;;;;;;15.84;56.88;101495.47;5046661;28;20040;-70
2022/05/19 01:25:47;;;;;;;7.18;3.47;;;;;;;15.81;57.05;101503.66;5059766;28;20054;-70
2022/05/19 01:28:14;;;;;;;7.53;3.88;;;;;;;15.77;57.32;101496.88;5065447;28;20056;-71
2022/05/19 01:30:43;;;;;;;5.70;3.28;;;;;;;15.74;57.35;101503.22;5072323;28;20045;-69
2022/05/19 01:33:11;;;;;;;7.32;3.72;;;;;;;15.72;57.27;101502.47;5048590;28;20049;-68
2022/05/19 01:35:38;;;;;;;5.35;3.45;;;;;;;15.69;57.58;101500.88;5045277;28;20057;-70
2022/05/19 01:38:27;;;;;;;5.68;3.38;;;;;;;15.66;57.72;101500.22;5063854;28;20052;-71
2022/05/19 01:41:18;;;;;;;8.07;3.90;;;;;;;15.62;57.78;101496.88;5062931;28;20067;-71
2022/05/19 01:44:23;;;;;;;9.63;3.45;;;;;;;15.59;58.02;101491.78;5052242;28;20418;-70
2022/05/19 01:47:03;;;;;;;7.75;3.65;;;;;;;15.58;58.22;101502.47;5061041;28;21774;-71
2022/05/19 01:49:39;;;;;;;4.47;3.35;;;;;;;15.56;57.71;101496.44;5039668;28;20493;-71
2022/05/19 01:52:18;;;;;;;5.45;3.35;;;;;;;15.52;58.07;101495.78;5040219;28;20502;-70
2022/05/19 01:54:55;;;;;;;7.78;3.28;;;;;;;15.48;58.11;101493.44;5047720;28;20063;-69
2022/05/19 01:57:27;;;;;;;7.90;2.90;;;;;;;15.45;58.01;101487.38;5046776;28;20113;-70
2022/05/19 02:00:21;;;;;;;8.23;3.35;;;;;;;15.41;58.37;101491.19;5053509;28;20048;-69
2022/05/19 02:03:02;;;;;;;7.75;3.60;;;;;;;15.38;58.31;101483.44;5050068;28;20375;-70
2022/05/19 02:05:32;;;;;;;6.18;3.22;;;;;;;15.34;58.23;101484.56;5054600;28;20045;-71
2022/05/19 02:08:02;;;;;;;8.65;3.67;;;;;;;15.29;58.52;101483.19;5065728;28;20625;-70
2022/05/19 02:10:36;;;;;;;6.78;3.70;;;;;;;15.25;58.44;101486.97;5043259;28;20426;-71
2022/05/19 02:13:05;;;;;;;5.63;3.42;;;;;;;15.23;58.83;101483.59;5051730;28;20044;-71
2022/05/19 02:15:35;;;;;;;10.57;3.97;;;;;;;15.18;58.72;101487.38;5040804;28;20075;-70
2022/05/19 02:18:03;;;;;;;11.93;3.65;;;;;;;15.16;58.68;101488.41;5036221;28;20053;-69
2022/05/19 02:20:31;;;;;;;5.93;3.83;;;;;;;15.14;58.92;101485.88;5045390;28;20041;-70
2022/05/19 02:22:59;;;;;;;7.43;3.53;;;;;;;15.12;58.86;101482.44;5067050;28;20048;-69
2022/05/19 02:25:30;;;;;;;4.55;3.30;;;;;;;15.10;59.11;101489.66;5052695;28;20056;-69
2022/05/19 02:28:10;;;;;;;6.68;3.10;;;;;;;15.06;59.09;101487.31;5030813;28;20061;-70
2022/05/19 02:30:39;;;;;;;4.80;3.15;;;;;;;15.04;59.23;101490.06;5060460;28;20079;-70
2022/05/19 02:33:08;;;;;;;5.40;3.22;;;;;;;15.01;59.36;101484.09;5036697;28;20040;-69
2022/05/19 02:35:35;;;;;;;8.32;3.20;;;;;;;14.97;59.73;101485.25;5057291;28;20059;-69
2022/05/19 02:38:03;;;;;;;6.55;2.85;;;;;;;14.95;59.80;101485.34;5051325;28;20382;-69
2022/05/19 02:40:32;;;;;;;7.00;3.75;;;;;;;14.92;60.00;101483.75;5046177;28;20088;-69
2022/05/19 02:43:00;;;;;;;6.78;3.05;;;;;;;14.90;59.98;101477.69;5042901;28;20040;-72
2022/05/19 02:45:28;;;;;;;7.15;3.50;;;;;;;14.87;60.05;101485.00;5038810;28;20057;-69
2022/05/19 02:47:56;;;;;;;7.82;3.63;;;;;;;14.83;60.14;101480.81;5051771;28;20060;-69
2022/05/19 02:50:23;;;;;;;7.72;3.88;;;;;;;14.82;60.03;101481.78;5046426;28;20059;-69
2022/05/19 02:52:51;;;;;;;9.32;3.20;;;;;;;14.81;60.46;101482.69;5046279;28;20037;-69
2022/05/19 02:55:19;;;;;;;4.95;2.92;;;;;;;14.77;60.43;101478.53;5049245;28;20071;-69
2022/05/19 02:57:48;;;;;;;6.75;3.10;;;;;;;14.73;60.42;101479.72;5069542;28;20036;-70
2022/05/19 03:00:20;;;;;;;4.50;3.40;;;;;;;14.73;60.22;101482.34;5051229;28;20390;-69
2022/05/19 03:02:53;;;;;;;9.07;3.25;;;;;;;14.71;60.61;101481.59;5064967;28;20040;-69
2022/05/19 03:05:23;;;;;;;6.95;3.58;;;;;;;14.69;60.90;101479.03;5046422;28;20532;-69
2022/05/19 03:07:50;;;;;;;3.83;2.80;;;;;;;14.66;60.61;101476.56;5048443;28;20052;-69
2022/05/19 03:10:18;;;;;;;9.88;3.30;;;;;;;14.65;60.95;101483.69;5046641;28;20063;-70
2022/05/19 03:12:46;;;;;;;7.88;3.03;;;;;;;14.63;60.83;101488.22;5047400;28;20049;-69
2022/05/19 03:15:14;;;;;;;9.68;4.07;;;;;;;14.63;60.96;101482.94;5048384;28;20060;-69
2022/05/19 03:17:42;;;;;;;5.63;3.20;;;;;;;14.60;61.02;101488.41;5062392;28;20099;-69
2022/05/19 03:20:11;;;;;;;7.40;3.47;;;;;;;14.59;61.07;101491.13;5061066;28;20067;-69
2022/05/19 03:22:41;;;;;;;6.28;3.47;;;;;;;14.57;61.09;101485.09;5067194;28;20039;-69
2022/05/19 03:25:09;;;;;;;10.73;3.60;;;;;;;14.58;61.23;101492.09;5053456;28;20055;-69
2022/05/19 03:27:37;;;;;;;6.35;3.03;;;;;;;14.59;61.19;101489.38;5063671;28;20515;-70
2022/05/19 03:30:13;;;;;;;6.25;3.53;;;;;;;14.61;60.92;101489.25;5053793;28;20592;-68
2022/05/19 03:32:41;;;;;;;7.88;3.30;;;;;;;14.62;61.16;101493.59;5066143;28;20061;-70
2022/05/19 03:35:10;;;;;;;7.57;3.35;;;;;;;14.63;61.21;101496.19;5062783;28;20059;-69
2022/05/19 03:37:37;;;;;;;8.52;3.50;;;;;;;14.64;61.04;101500.53;5046449;28;20070;-69
2022/05/19 03:40:06;;;;;;;10.27;3.13;;;;;;;14.64;61.12;101497.03;5058439;28;20053;-69
2022/05/19 03:42:34;;;;;;;9.32;3.92;;;;;;;14.67;60.88;101500.31;5052117;28;20071;-68
2022/05/19 03:45:03;;;;;;;4.78;2.78;;;;;;;14.70;61.04;101507.25;5067477;28;20055;-69
2022/05/19 03:47:31;;;;;;;9.68;3.85;;;;;;;14.72;61.04;101504.47;5043348;28;20060;-69
2022/05/19 03:49:59;;;;;;;9.48;3.83;;;;;;;14.72;60.89;101499.19;5040567;28;20048;-70
2022/05/19 03:52:26;;;;;;;13.07;3.58;;;;;;;14.72;60.97;101500.03;5068466;28;20123;-70
2022/05/19 03:54:54;;;;;;;7.65;3.88;;;;;;;14.75;60.76;101501.66;5042045;28;20044;-69
2022/05/19 03:57:23;;;;;;;7.10;3.45;;;;;;;14.75;60.77;101497.19;5069940;28;20071;-69
2022/05/19 03:59:50;;;;;;;5.60;3.50;;;;;;;14.76;60.84;101498.03;5059337;28;20053;-68
2022/05/19 04:02:18;;;;;;;5.35;3.00;;;;;;;14.78;60.72;101498.81;5061949;28;20051;-70
2022/05/19 04:05:02;;;;;;;8.13;3.53;;;;;;;14.78;60.82;101488.22;5063317;28;20044;-71
2022/05/19 04:07:29;;;;;;;5.60;3.33;;;;;;;14.79;60.59;101495.22;5033913;28;20044;-70
2022/05/19 04:09:57;;;;;;;10.02;3.70;;;;;;;14.82;60.85;101492.38;5048411;28;20363;-70
2022/05/19 04:12:24;;;;;;;7.47;3.30;;;;;;;14.84;60.61;101486.03;5067435;28;20064;-68
2022/05/19 04:14:52;;;;;;;7.68;3.50;;;;;;;14.84;60.58;101486.03;5064078;28;20064;-69
2022/05/19 04:17:21;;;;;;;5.03;3.38;;;;;;;14.85;60.53;101490.38;5054706;28;20407;-68
2022/05/19 04:19:48;;;;;;;7.40;3.22;;;;;;;14.85;60.77;101495.66;5041546;28;20057;-69
2022/05/19 04:22:16;;;;;;;9.50;3.70;;;;;;;14.86;61.04;101491.22;5063259;28;20053;-69
2022/05/19 04:24:43;;;;;;;9.77;3.30;;;;;;;14.85;60.78;101498.31;5060177;28;20059;-69
2022/05/19 04:27:14;;;;;;;4.78;3.30;;;;;;;14.86;60.53;101491.22;5051951;28;20230;-69
2022/05/19 04:29:41;;;;;;;4.03;2.80;;;;;;;14.88;60.58;101490.19;5065320;28;20036;-69
2022/05/19 04:32:09;;;;;;;8.50;3.20;;;;;;;14.92;60.40;101489.03;5063460;28;20044;-69
2022/05/19 04:34:36;;;;;;;7.43;3.60;;;;;;;14.94;60.66;101488.94;5061502;28;20078;-69
2022/05/19 04:37:04;;;;;;;8.30;3.15;;;;;;;14.98;60.16;101482.50;5062866;28;20405;-69
2022/05/19 04:39:31;;;;;;;5.35;3.50;;;;;;;15.05;59.81;101489.13;5063073;28;20057;-69
2022/05/19 04:41:58;;;;;;;9.60;3.30;;;;;;;15.12;59.67;101489.56;5064623;28;20056;-69
2022/05/19 04:44:26;;;;;;;8.38;3.47;;;;;;;15.15;59.68;101487.56;5029600;28;20052;-69
2022/05/19 04:46:53;;;;;;;9.07;3.75;;;;;;;15.20;59.62;101487.28;5064391;28;20058;-69
2022/05/19 04:49:21;;;;;;;8.80;3.30;;;;;;;15.29;59.64;101491.97;5060972;28;20056;-69
2022/05/19 04:51:48;;;;;;;5.88;3.22;;;;;;;15.36;59.51;101484.50;5042999;28;20078;-68
2022/05/19 04:54:15;;;;;;;10.20;4.20;;;;;;;15.38;59.31;101488.72;5057939;28;20051;-68
2022/05/19 04:56:43;;;;;;;7.28;3.50;;;;;;;15.43;59.38;101486.63;5055748;28;20052;-67
2022/05/19 04:59:14;;;;;;;9.55;4.18;;;;;;;15.49;59.07;101492.47;5059338;28;20048;-68
2022/05/19 05:01:42;;;;;;;10.10;4.22;;;;;;;15.56;58.75;101499.09;5059877;28;20387;-68
2022/05/19 05:04:10;;;;;;;10.38;3.53;;;;;;;15.64;58.65;101494.16;5043811;28;20037;-70
2022/05/19 05:06:38;;;;;;;11.32;3.65;;;;;;;15.78;58.54;101499.41;5027719;28;20058;-70
2022/05/19 05:09:06;;;;;;;8.93;3.22;;;;;;;15.84;57.84;101493.66;5038178;28;20105;-72
2022/05/19 05:11:33;;;;;;;10.65;3.28;;;;;;;15.97;57.75;101493.69;5059675;28;20041;-69
2022/05/19 05:14:00;;;;;;;8.48;3.75;;;;;;;16.09;57.59;101492.03;5061965;28;20062;-70
2022/05/19 05:16:28;;;;;;;9.02;3.58;;;;;;;16.17;57.09;101497.66;5061666;28;20053;-70
2022/05/19 05:18:55;;;;;;;12.13;3.88;;;;;;;16.28;56.96;101495.13;5042115;28;20621;-70
2022/05/19 05:21:23;;;;;;;7.70;3.85;;;;;;;16.35;56.73;101493.75;5055877;28;20052;-70
2022/05/19 05:23:50;;;;;;;8.05;4.30;;;;;;;16.38;56.35;101492.66;5057703;28;20522;-68
2022/05/19 05:26:18;;;;;;;6.07;3.30;;;;;;;16.47;56.26;101494.69;5060932;28;20071;-69
2022/05/19 05:28:45;;;;;;;10.45;3.85;;;;;;;16.58;56.35;101493.94;5043920;28;20617;-70
2022/05/19 05:31:13;;;;;;;9.80;3.40;;;;;;;16.71;55.92;101492.97;5026372;28;20041;-69
2022/05/19 05:33:41;;;;;;;7.53;3.85;;;;;;;16.77;55.51;101494.38;5029125;28;20056;-68
2022/05/19 05:36:08;;;;;;;9.02;3.33;;;;;;;16.84;55.31;101493.00;5067965;28;20052;-69
2022/05/19 05:38:35;;;;;;;8.43;3.50;;;;;;;16.89;55.16;101490.84;5062412;28;20517;-69
2022/05/19 05:41:03;;;;;;;7.20;3.33;;;;;;;16.99;55.27;101493.69;5061606;28;20050;-70
2022/05/19 05:43:30;;;;;;;8.13;3.40;;;;;;;17.10;54.93;101498.22;5063353;28;20093;-70
2022/05/19 05:46:07;;;;;;;9.35;3.30;;;;;;;17.19;54.99;101497.56;5061103;28;20053;-69
2022/05/19 05:48:36;;;;;;;10.07;3.42;;;;;;;17.28;54.76;101502.19;5063332;28;20059;-69
2022/05/19 05:51:05;;;;;;;4.25;3.13;;;;;;;17.40;54.47;101508.44;5032242;28;20481;-69
2022/05/19 05:53:35;;;;;;;11.38;4.65;;;;;;;17.38;54.35;101507.69;5042642;28;20047;-71
2022/05/19 05:56:04;;;;;;;6.05;3.40;;;;;;;17.41;54.73;101500.34;5036455;28;20410;-71
2022/05/19 05:58:32;;;;;;;7.75;3.30;;;;;;;17.55;54.40;101503.78;5060699;28;20048;-70
2022/05/19 06:01:02;;;;;;;12.23;3.28;;;;;;;17.62;54.34;101508.56;5061070;28;20780;-69
2022/05/19 06:03:29;;;;;;;9.02;3.58;;;;;;;17.68;53.91;101505.44;5057658;28;20051;-70
2022/05/19 06:05:57;;;;;;;7.88;4.00;;;;;;;17.75;53.68;101503.19;5060324;28;20060;-69
2022/05/19 06:08:25;;;;;;;10.43;2.95;;;;;;;17.87;53.62;101504.06;5064275;28;20371;-69
2022/05/19 06:10:53;;;;;;;10.20;4.03;;;;;;;17.91;53.31;101501.06;5043169;28;20053;-68
2022/05/19 06:13:21;;;;;;;10.30;3.55;;;;;;;17.99;53.37;101507.63;5041960;28;20561;-69
2022/05/19 06:15:48;;;;;;;9.07;3.10;;;;;;;18.14;53.11;101501.13;5042471;28;20363;-70
2022/05/19 06:18:16;;;;;;;10.95;3.97;;;;;;;18.25;52.98;101498.50;5060302;28;20048;-70
2022/05/19 06:20:44;;;;;;;8.30;3.05;;;;;;;18.42;52.70;101500.69;5064655;28;20052;-69
2022/05/19 06:23:12;;;;;;;5.32;3.50;;;;;;;18.61;52.23;101501.91;5061443;28;20041;-70
2022/05/19 06:25:45;;;;;;;8.18;3.38;;;;;;;18.73;51.60;101503.63;5045886;28;20046;-70
2022/05/19 06:28:13;;;;;;;10.48;3.67;;;;;;;18.78;51.83;101497.91;5047935;28;20048;-70
2022/05/19 06:30:41;;;;;;;18.55;3.47;;;;;;;18.95;51.42;101503.59;5017607;28;20286;-69
2022/05/19 06:33:12;;;;;;;8.32;3.83;;;;;;;19.01;50.80;101507.63;5050903;28;20033;-70
2022/05/19 06:35:41;;;;;;;12.32;3.50;;;;;;;19.09;50.74;101504.31;5067393;28;20425;-70
2022/05/19 06:38:08;;;;;;;11.55;4.03;;;;;;;19.14;50.83;101495.00;5064601;28;20074;-69
2022/05/19 06:40:36;;;;;;;7.47;3.53;;;;;;;19.30;50.80;101496.41;5062425;28;20048;-69
2022/05/19 06:43:08;;;;;;;18.77;3.67;;;;;;;19.44;50.62;101498.78;5064999;28;20045;-71
2022/05/19 06:45:36;;;;;;;5.70;3.65;;;;;;;19.47;49.97;101498.53;5043605;28;20053;-69
2022/05/19 06:48:03;;;;;;;11.63;3.92;;;;;;;19.51;50.23;101491.97;5057150;28;20043;-69
2022/05/19 06:50:31;;;;;;;9.68;3.72;;;;;;;19.60;49.61;101493.03;5062769;28;20054;-70
2022/05/19 06:53:03;;;;;;;8.65;3.30;;;;;;;19.68;49.86;101485.25;5068838;28;20070;-69
2022/05/19 06:55:35;;;;;;;6.47;3.40;;;;;;;19.80;49.67;101488.72;5060550;28;20053;-69
2022/05/19 06:58:03;;;;;;;11.82;3.55;;;;;;;19.86;49.40;101475.69;5082532;28;20063;-69
2022/05/19 07:00:31;;;;;;;11.45;3.05;;;;;;;19.91;49.60;101477.97;5044271;28;20158;-69
2022/05/19 07:02:59;;;;;;;9.07;3.55;;;;;;;20.08;49.67;101477.34;5084896;28;20062;-69
2022/05/19 07:05:31;;;;;;;9.07;3.88;;;;;;;20.11;49.10;101476.25;5061321;28;20052;-69
2022/05/19 07:07:58;;;;;;;4.55;3.05;;;;;;;20.21;49.17;101469.13;5074095;28;20056;-70
2022/05/19 07:10:27;;;;;;;10.45;3.58;;;;;;;20.35;49.02;101467.94;5056436;28;20051;-69
2022/05/19 07:12:55;;;;;;;6.43;3.10;;;;;;;20.34;49.14;101466.25;5066800;28;20048;-68
2022/05/19 07:15:23;;;;;;;7.05;3.45;;;;;;;20.45;49.14;101468.84;5035602;28;20529;-70
2022/05/19 07:17:50;;;;;;;10.82;3.67;;;;;;;20.54;48.67;101457.38;5061527;28;20058;-69
2022/05/19 07:23:06;;;;;;;10.15;3.50;;;;;;;20.83;48.75;101453.94;5069876;28;20510;-67
2022/05/19 07:25:34;;;;;;;12.45;3.72;;;;;;;20.87;48.17;101450.88;5042878;28;20121;-69
2022/05/19 07:28:01;;;;;;;12.35;3.42;;;;;;;20.84;47.82;101447.59;5059396;28;20478;-68
2022/05/19 07:30:29;;;;;;;11.38;3.38;;;;;;;20.86;48.23;101438.47;5066354;28;20071;-68
2022/05/19 07:32:56;;;;;;;6.53;3.47;;;;;;;20.95;47.83;101442.16;5055836;28;20048;-69
2022/05/19 07:35:24;;;;;;;10.65;3.42;;;;;;;21.03;47.54;101438.75;5061590;28;20048;-69
2022/05/19 07:37:51;;;;;;;8.95;4.07;;;;;;;21.10;47.87;101440.75;5053009;28;20096;-68
2022/05/19 07:40:19;;;;;;;13.73;3.90;;;;;;;21.01;48.14;101443.44;5076403;28;20052;-68
2022/05/19 07:45:58;;;;;;;8.52;3.75;;;;;;;21.13;48.28;101437.81;5064078;28;20064;-68
2022/05/19 07:48:27;;;;;;;9.07;3.95;;;;;;;21.19;48.31;101431.03;5070281;28;20902;-67
2022/05/19 07:50:55;;;;;;;8.45;3.50;;;;;;;21.31;48.45;101434.44;5049877;28;20121;-68
2022/05/19 07:53:22;;;;;;;12.18;4.00;;;;;;;21.43;48.41;101426.16;5067907;28;20055;-68
2022/05/19 07:55:49;;;;;;;6.80;3.72;;;;;;;21.45;47.93;101428.69;5070157;28;20060;-68
2022/05/19 07:58:17;;;;;;;9.35;3.75;;;;;;;21.60;48.09;101418.38;5058820;28;20048;-68
2022/05/19 08:00:46;;;;;;;12.25;3.63;;;;;;;21.69;47.65;101431.78;5064056;28;20057;-69
2022/05/19 08:03:14;;;;;;;10.52;4.00;;;;;;;21.72;47.83;101431.50;5022667;28;20044;-68
2022/05/19 08:05:42;;;;;;;7.18;3.72;;;;;;;21.79;47.85;101422.88;5066974;28;20124;-69
2022/05/19 08:08:09;;;;;;;12.07;3.65;;;;;;;21.96;48.02;101417.59;5067282;28;20072;-68
2022/05/19 08:10:37;;;;;;;7.40;4.18;;;;;;;22.10;47.28;101424.34;5046987;28;20048;-68
2022/05/19 08:15:53;;;;;;;11.30;4.00;;;;;;;22.32;47.19;101414.28;5056115;28;20040;-69
2022/05/19 08:18:23;;;;;;;9.02;3.63;;;;;;;22.46;47.14;101424.53;5031786;28;20053;-70
2022/05/19 08:20:58;;;;;;;8.60;3.53;;;;;;;22.45;46.40;101421.00;5058610;28;20091;-68
2022/05/19 08:23:29;;;;;;;7.95;3.63;;;;;;;22.57;46.48;101418.97;5046379;28;20054;-68
2022/05/19 08:25:57;;;;;;;4.40;3.22;;;;;;;22.75;46.19;101419.03;5064708;28;20475;-69
2022/05/19 08:28:31;;;;;;;6.32;3.85;;;;;;;22.92;45.87;101415.56;5047947;28;20056;-69
2022/05/19 08:31:05;;;;;;;8.10;3.95;;;;;;;23.09;45.54;101418.41;5048802;28;20053;-69
2022/05/19 08:33:34;;;;;;;5.47;3.80;;;;;;;23.20;45.46;101410.97;5043561;28;20526;-69
2022/05/19 08:36:05;;;;;;;12.00;4.15;;;;;;;23.23;44.76;101412.47;5041870;28;20041;-68
2022/05/19 08:38:32;;;;;;;9.30;3.75;;;;;;;23.23;44.92;101415.16;5062452;28;20056;-68
2022/05/19 08:41:05;;;;;;;6.68;3.97;;;;;;;23.40;45.55;101410.78;5053040;28;20403;-69
2022/05/19 08:43:45;;;;;;;10.18;3.97;;;;;;;23.44;44.45;101415.69;5046647;28;20089;-67
2022/05/19 08:46:18;;;;;;;11.90;3.97;;;;;;;23.52;44.42;101411.41;5036505;28;20057;-68
2022/05/19 08:48:49;;;;;;;9.63;4.45;;;;;;;23.65;44.31;101411.88;5040611;28;20051;-69
2022/05/19 08:51:17;;;;;;;6.68;4.05;;;;;;;23.69;44.54;101406.03;5076878;28;20168;-70
2022/05/19 08:53:45;;;;;;;4.60;3.10;;;;;;;23.84;44.35;101406.28;5042697;28;20057;-70
2022/05/19 08:56:36;;;;;;;8.13;3.83;;;;;;;24.08;44.07;101404.75;5050074;28;20036;-70
2022/05/19 08:59:42;;;;;;;7.15;3.92;;;;;;;24.32;43.81;101398.69;5051459;28;20538;-67
2022/05/19 09:02:14;;;;;;;6.78;3.75;;;;;;;24.52;43.30;101410.91;5054330;28;20042;-69
2022/05/19 09:05:16;;;;;;;9.05;3.08;;;;;;;24.62;42.78;101406.22;5048594;28;20415;-68
2022/05/19 09:08:04;;;;;;;4.97;3.35;;;;;;;24.88;42.82;101410.66;5061009;28;20495;-69
2022/05/19 09:10:52;;;;;;;6.47;3.58;;;;;;;24.89;42.44;101399.72;5070234;28;20054;-69
2022/05/19 09:13:29;;;;;;;8.30;3.38;;;;;;;24.93;42.17;101395.69;5045436;28;20169;-68
2022/05/19 09:16:00;;;;;;;8.55;3.22;;;;;;;25.09;42.72;101394.94;5063683;28;20055;-69
2022/05/19 09:18:33;;;;;;;6.97;3.38;;;;;;;25.21;42.12;101388.19;5032123;28;20048;-68
2022/05/19 09:21:02;;;;;;;7.18;3.75;;;;;;;25.31;41.05;101382.66;5042334;28;20057;-69
2022/05/19 09:23:29;;;;;;;9.88;3.28;;;;;;;25.49;40.66;101382.47;5062387;28;20052;-69
2022/05/19 09:26:18;;;;;;;7.90;3.50;;;;;;;25.73;40.01;101378.91;5047589;28;20055;-69
2022/05/19 09:28:46;;;;;;;7.65;3.30;;;;;;;25.83;39.90;101387.66;5046073;28;20390;-69
2022/05/19 09:31:32;;;;;;;6.95;3.33;;;;;;;25.95;39.65;101377.38;5066338;28;20075;-69
2022/05/19 09:34:00;;;;;;;9.50;3.20;;;;;;;26.22;39.46;101378.81;5060511;28;20723;-68
2022/05/19 09:36:27;;;;;;;5.07;2.40;;;;;;;26.38;38.99;101372.47;5065746;28;20544;-69
2022/05/19 09:39:01;;;;;;;9.82;3.38;;;;;;;26.45;38.94;101377.03;5012973;28;20053;-69
2022/05/19 09:41:33;;;;;;;8.43;3.13;;;;;;;26.59;37.75;101378.16;5047781;28;20051;-68
2022/05/19 09:44:04;;;;;;;8.27;3.03;;;;;;;26.62;37.94;101379.69;5068458;28;20069;-68
2022/05/19 09:46:47;;;;;;;6.32;2.78;;;;;;;26.74;37.34;101372.81;5065030;28;20410;-69
2022/05/19 09:49:33;;;;;;;7.40;2.95;;;;;;;26.73;37.84;101372.00;5048302;28;20092;-69
2022/05/19 09:52:03;;;;;;;10.45;3.03;;;;;;;26.74;37.11;101373.66;5047803;28;20049;-69
2022/05/19 09:54:34;;;;;;;7.10;3.15;;;;;;;26.87;37.42;101370.38;5047699;28;20060;-69
2022/05/19 09:57:09;;;;;;;3.38;2.60;;;;;;;26.93;37.71;101375.09;5041226;28;20048;-69
2022/05/19 09:59:47;;;;;;;9.05;3.35;;;;;;;26.72;38.36;101373.03;5044129;28;20560;-69
2022/05/19 10:02:24;;;;;;;4.95;2.50;;;;;;;26.86;37.88;101376.81;5067745;28;20058;-69
2022/05/19 10:04:57;;;;;;;8.27;2.78;;;;;;;27.04;37.52;101376.53;5059171;28;20124;-69
2022/05/19 10:07:36;;;;;;;6.25;2.90;;;;;;;27.20;37.53;101375.59;5085719;28;20056;-69
2022/05/19 10:10:18;;;;;;;5.32;2.80;;;;;;;27.38;37.27;101362.59;5079061;28;20108;-69
2022/05/19 10:12:48;;;;;;;6.05;2.55;;;;;;;27.68;36.67;101359.94;5057808;28;20104;-69
2022/05/19 10:15:19;;;;;;;6.93;2.95;;;;;;;27.80;36.47;101353.09;5058742;28;20101;-69
2022/05/19 10:18:10;;;;;;;9.10;2.92;;;;;;;27.88;36.28;101350.31;5063910;28;20068;-69
2022/05/19 10:20:45;;;;;;;5.93;3.08;;;;;;;28.09;36.34;101345.97;5062130;28;20055;-69
2022/05/19 10:23:58;;;;;;;7.90;3.07;;;;;;;28.33;35.97;101342.97;5043495;28;20540;-70
2022/05/19 10:31:02;;;;;;;11.27;2.88;;;;;;;28.59;34.28;101347.03;5041725;28;20052;-70
2022/05/19 10:32:53;;;;;;;16.80;2.70;;;;;;;28.54;33.74;101334.06;5048216;28;20110;-71
2022/05/19 10:35:43;;;;;;;5.50;3.00;;;;;;;28.32;33.74;101338.56;5047198;28;20059;-71
2022/05/19 10:38:18;;;;;;;5.05;3.05;;;;;;;28.01;34.03;101333.41;5043585;28;20048;-71
2022/05/19 10:41:24;;;;;;;5.07;2.30;;;;;;;28.21;34.60;101312.84;5043953;28;20147;-71
2022/05/19 10:44:05;;;;;;;6.72;3.05;;;;;;;28.45;34.23;101314.38;5026530;28;20064;-72
2022/05/19 10:46:49;;;;;;;8.85;2.92;;;;;;;28.57;33.66;101308.50;5056255;28;20071;-71
2022/05/19 10:49:38;;;;;;;5.55;2.78;;;;;;;28.60;33.71;101308.13;5044776;28;20064;-71
2022/05/19 10:52:26;;;;;;;3.83;2.90;;;;;;;28.70;33.61;101297.78;5080214;28;20659;-71
2022/05/19 10:55:07;;;;;;;5.32;2.95;;;;;;;28.93;33.25;101295.72;5062285;28;20059;-72
2022/05/19 10:57:53;;;;;;;6.32;2.72;;;;;;;29.12;33.15;101296.13;5044705;28;20045;-72
2022/05/19 11:00:52;;;;;;;5.45;2.75;;;;;;;29.04;32.72;101286.22;5046061;28;20080;-71
2022/05/19 11:03:36;;;;;;;3.78;2.53;;;;;;;29.21;32.69;101287.63;5058480;28;20063;-72
2022/05/19 11:06:34;;;;;;;6.45;2.85;;;;;;;29.51;32.13;101284.72;5041873;28;20059;-72
2022/05/19 11:09:20;;;;;;;9.13;2.67;;;;;;;29.81;31.97;101279.06;5043705;28;20078;-72
2022/05/19 11:12:01;;;;;;;6.55;2.60;;;;;;;29.88;31.98;101286.22;5065230;28;20106;-72
2022/05/19 11:14:47;;;;;;;8.15;2.97;;;;;;;29.51;31.87;101276.59;5058869;28;20048;-72
2022/05/19 11:18:05;;;;;;;5.32;2.83;;;;;;;29.79;31.71;101273.84;5044900;28;20044;-72
2022/05/19 11:21:03;;;;;;;7.47;2.70;;;;;;;30.21;31.04;101275.50;5021524;28;20059;-71
2022/05/19 11:23:46;;;;;;;4.70;2.50;;;;;;;30.25;30.65;101265.91;5066463;28;20056;-72
2022/05/19 11:26:31;;;;;;;4.32;2.50;;;;;;;30.55;30.01;101262.84;5031353;28;20386;-72
2022/05/19 11:29:33;;;;;;;6.80;2.63;;;;;;;30.28;29.69;101270.13;5062970;28;20057;-70
2022/05/19 11:32:09;;;;;;;5.50;2.50;;;;;;;30.05;30.53;101270.44;5065005;28;20052;-72
2022/05/19 11:34:56;;;;;;;7.13;2.30;;;;;;;30.21;30.28;101261.09;5046278;28;20063;-72
2022/05/19 11:37:50;;;;;;;4.60;2.50;;;;;;;30.29;30.93;101266.34;5044532;28;20056;-71
2022/05/19 11:40:21;;;;;;;5.55;3.55;;;;;;;30.06;29.96;101263.09;5060882;28;20062;-72
2022/05/19 11:42:58;;;;;;;11.02;2.92;;;;;;;29.88;30.09;101252.81;5049377;28;20514;-72
2022/05/19 11:45:34;;;;;;;7.80;3.28;;;;;;;29.81;30.83;101243.78;5042966;28;20037;-72
2022/05/19 11:56:47;;;;;;;6.55;2.47;;;;;;;29.92;29.70;101244.06;5052521;28;20048;-71
2022/05/19 11:59:15;;;;;;;4.32;2.60;;;;;;;29.83;30.09;101239.84;5065608;28;20052;-71
2022/05/19 12:01:48;;;;;;;6.03;2.95;;;;;;;29.90;30.26;101248.00;5048765;28;20049;-71
2022/05/19 12:04:24;;;;;;;5.95;2.47;;;;;;;30.11;29.60;101245.16;5047859;28;20044;-71
2022/05/19 12:07:09;;;;;;;5.88;2.33;;;;;;;30.49;30.18;101239.25;5049954;28;20155;-71
2022/05/19 12:09:37;;;;;;;7.60;2.83;;;;;;;30.67;28.79;101235.91;5064101;28;20052;-71
2022/05/19 12:12:16;;;;;;;5.88;2.30;;;;;;;30.73;28.82;101232.38;5064964;28;20045;-72